createdAt,value
2022-09-04T00:01:19.525Z,100470.35
2022-09-04T00:04:18.643Z,100454.91
2022-09-04T00:05:30.179Z,100463.19
2022-09-04T00:06:36.440Z,100467.68
2022-09-04T00:07:45.017Z,100457.36
2022-09-04T00:09:08.579Z,100465.25
2022-09-04T00:10:14.786Z,100467.06
2022-09-04T00:11:47.225Z,100469.60
2022-09-04T00:12:55.937Z,100463.63
2022-09-04T00:14:01.627Z,100463.66
2022-09-04T00:15:13.201Z,100467.20
2022-09-04T00:16:22.424Z,100475.94
2022-09-04T00:17:31.095Z,100472.53
2022-09-04T00:18:56.203Z,100470.83
2022-09-04T00:20:04.801Z,100470.83
2022-09-04T00:21:16.678Z,100473.58
2022-09-04T00:22:22.350Z,100477.93
2022-09-04T00:23:33.753Z,100464.96
2022-09-04T00:24:42.440Z,100468.47
2022-09-04T00:26:03.129Z,100468.55
2022-09-04T00:27:11.816Z,100465.07
2022-09-04T00:28:36.075Z,100468.47
2022-09-04T00:30:01.733Z,100465.03
2022-09-04T00:31:35.798Z,100468.55
2022-09-04T00:32:47.645Z,100472.89
2022-09-04T00:33:56.806Z,100472.89
2022-09-04T00:35:08.973Z,100469.45
2022-09-04T00:36:14.967Z,100473.88
2022-09-04T00:37:20.625Z,100468.72
2022-09-04T00:38:35.495Z,100471.33
2022-09-04T00:39:57.014Z,100472.23
2022-09-04T00:41:18.522Z,100479.99
2022-09-04T00:42:25.237Z,100480.13
2022-09-04T00:43:59.355Z,100468.80
2022-09-04T00:45:11.981Z,100473.14
2022-09-04T00:46:42.507Z,100469.77
2022-09-04T00:47:56.866Z,100480.20
2022-09-04T00:49:11.033Z,100478.50
2022-09-04T00:50:20.540Z,100477.63
2022-09-04T00:51:34.905Z,100478.61
2022-09-04T00:52:59.321Z,100482.95
2022-09-04T00:54:27.470Z,100480.38
2022-09-04T00:55:35.943Z,100475.23
2022-09-04T00:56:42.732Z,100473.60
2022-09-04T00:58:11.464Z,100475.55
2022-09-04T00:59:42.638Z,100474.75
2022-09-04T01:00:47.086Z,100477.49
2022-09-04T01:01:51.444Z,100481.00
2022-09-04T01:03:18.785Z,100480.20
2022-09-04T01:04:41.403Z,100475.89
2022-09-04T01:06:05.124Z,100476.87
2022-09-04T01:07:11.378Z,100479.54
2022-09-04T01:08:34.170Z,100480.52
2022-09-04T01:09:54.982Z,100480.55
2022-09-04T01:11:29.787Z,100482.31
2022-09-04T01:12:44.714Z,100479.78
2022-09-04T01:13:53.053Z,100478.08
2022-09-04T01:15:01.791Z,100474.66
2022-09-04T01:16:10.711Z,100479.08
2022-09-04T01:17:33.235Z,100482.48
2022-09-04T01:18:57.010Z,100472.20
2022-09-04T01:20:12.802Z,100475.70
2022-09-04T01:21:36.821Z,100471.39
2022-09-04T01:23:05.543Z,100478.41
2022-09-04T01:24:19.630Z,100476.77
2022-09-04T01:25:46.874Z,100468.95
2022-09-04T01:26:58.752Z,100473.44
2022-09-04T01:28:12.986Z,100469.26
2022-09-04T01:29:27.642Z,100472.83
2022-09-04T01:30:34.667Z,100467.66
2022-09-04T01:32:13.984Z,100466.02
2022-09-04T01:33:29.478Z,100469.52
2022-09-04T01:34:46.638Z,100467.82
2022-09-04T01:35:58.413Z,100470.48
2022-09-04T01:37:13.721Z,100465.28
2022-09-04T01:38:40.814Z,100477.53
2022-09-04T01:39:46.576Z,100475.03
2022-09-04T01:41:01.598Z,100473.33
2022-09-04T01:42:10.326Z,100471.59
2022-09-04T01:43:17.891Z,100466.48
2022-09-04T01:44:20.049Z,100472.52
2022-09-04T01:45:34.852Z,100469.08
2022-09-04T01:46:49.922Z,100469.14
2022-09-04T01:47:55.588Z,100473.45
2022-09-04T01:49:09.771Z,100466.58
2022-09-04T01:50:20.186Z,100473.45
2022-09-04T01:51:42.088Z,100474.36
2022-09-04T01:52:59.894Z,100462.23
2022-09-04T01:54:22.207Z,100469.18
2022-09-04T01:55:27.902Z,100471.05
2022-09-04T01:56:52.181Z,100471.05
2022-09-04T01:58:00.657Z,100476.25
2022-09-04T02:00:20.477Z,100474.36
2022-09-04T02:01:28.598Z,100466.19
2022-09-04T02:02:53.044Z,100469.70
2022-09-04T02:04:18.994Z,100468.12
2022-09-04T02:05:36.169Z,100473.42
2022-09-04T02:07:15.425Z,100464.80
2022-09-04T02:08:27.141Z,100469.33
2022-09-04T02:10:01.174Z,100470.97
2022-09-04T02:11:12.937Z,100467.53
2022-09-04T02:12:27.997Z,100468.53
2022-09-04T02:13:42.852Z,100466.05
2022-09-04T02:14:56.741Z,100461.74
2022-09-04T02:16:08.506Z,100464.44
2022-09-04T02:17:14.208Z,100460.16
2022-09-04T02:18:39.507Z,100461.96
2022-09-04T02:19:48.791Z,100461.09
2022-09-04T02:21:00.644Z,100468.00
2022-09-04T02:22:27.852Z,100463.66
2022-09-04T02:23:45.645Z,100464.50
2022-09-04T02:25:07.951Z,100461.96
2022-09-04T02:27:51.628Z,100463.29
2022-09-04T02:29:00.089Z,100462.92
2022-09-04T02:30:09.449Z,100461.22
2022-09-04T02:31:36.603Z,100465.55
2022-09-04T02:32:51.209Z,100463.02
2022-09-04T02:34:05.966Z,100468.22
2022-09-04T02:35:30.162Z,100467.38
2022-09-04T02:36:43.126Z,100461.31
2022-09-04T02:38:17.341Z,100465.68
2022-09-04T02:39:56.871Z,100464.84
2022-09-04T02:41:08.602Z,100468.34
2022-09-04T02:42:26.241Z,100464.13
2022-09-04T02:43:49.263Z,100471.09
2022-09-04T02:45:17.927Z,100470.35
2022-09-04T02:46:42.538Z,100467.81
2022-09-04T02:48:04.934Z,100469.61
2022-09-04T02:49:27.616Z,100460.93
2022-09-04T02:50:40.338Z,100467.16
2022-09-04T02:52:17.071Z,100469.75
2022-09-04T02:53:25.461Z,100476.73
2022-09-04T02:54:40.306Z,100473.31
2022-09-04T02:56:05.716Z,100466.41
2022-09-04T02:57:26.711Z,100471.73
2022-09-04T02:58:54.732Z,100471.81
2022-09-04T03:00:00.372Z,100473.61
2022-09-04T03:01:06.117Z,100471.91
2022-09-04T03:02:27.032Z,100479.70
2022-09-04T03:03:38.853Z,100482.31
2022-09-04T03:06:17.006Z,100478.52
2022-09-04T03:07:22.651Z,100484.14
2022-09-04T03:08:28.651Z,100482.43
2022-09-04T03:09:46.175Z,100478.06
2022-09-04T03:10:52.455Z,100484.14
2022-09-04T03:12:00.995Z,100477.23
2022-09-04T03:13:23.390Z,100491.13
2022-09-04T03:14:38.271Z,100481.68
2022-09-04T03:15:46.918Z,100486.09
2022-09-04T03:17:04.367Z,100482.69
2022-09-04T03:18:33.124Z,100487.11
2022-09-04T03:19:41.722Z,100483.64
2022-09-04T03:20:50.895Z,100481.91
2022-09-04T03:22:02.655Z,100488.00
2022-09-04T03:23:25.210Z,100488.00
2022-09-04T03:24:42.991Z,100488.00
2022-09-04T03:25:51.662Z,100488.91
2022-09-04T03:27:03.680Z,100488.91
2022-09-04T03:28:09.324Z,100483.70
2022-09-04T03:29:34.279Z,100484.59
2022-09-04T03:30:38.866Z,100483.70
2022-09-04T03:32:16.327Z,100482.80
2022-09-04T03:33:23.948Z,100472.60
2022-09-04T03:34:58.819Z,100486.30
2022-09-04T03:36:10.770Z,100485.43
2022-09-04T03:37:25.548Z,100485.48
2022-09-04T03:38:49.812Z,100484.59
2022-09-04T03:40:02.746Z,100494.16
2022-09-04T03:41:34.170Z,100489.88
2022-09-04T03:42:59.241Z,100490.08
2022-09-04T03:44:20.299Z,100495.28
2022-09-04T03:45:52.043Z,100490.95
2022-09-04T03:47:31.448Z,100493.48
2022-09-04T03:48:42.915Z,100492.66
2022-09-04T03:49:54.574Z,100495.28
2022-09-04T03:51:16.267Z,100495.28
2022-09-04T03:52:46.378Z,100492.68
2022-09-04T03:54:09.069Z,100495.28
2022-09-04T03:55:23.830Z,100496.14
2022-09-04T03:56:42.337Z,100500.34
2022-09-04T03:57:56.762Z,100499.50
2022-09-04T03:59:28.924Z,100496.00
2022-09-04T04:00:43.786Z,100502.05
2022-09-04T04:02:01.875Z,100505.48
2022-09-04T04:03:29.257Z,100496.78
2022-09-04T04:04:34.982Z,100495.05
2022-09-04T04:05:52.646Z,100501.09
2022-09-04T04:07:01.960Z,100504.56
2022-09-04T04:08:07.593Z,100502.80
2022-09-04T04:09:34.125Z,100508.81
2022-09-04T04:11:00.272Z,100501.91
2022-09-04T04:12:12.624Z,100503.61
2022-09-04T04:13:30.325Z,100507.05
2022-09-04T04:14:38.690Z,100504.56
2022-09-04T04:16:01.045Z,100504.45
2022-09-04T04:17:12.554Z,100511.35
2022-09-04T04:18:37.351Z,100514.77
2022-09-04T04:19:49.271Z,100506.91
2022-09-04T04:21:25.777Z,100508.61
2022-09-04T04:22:40.118Z,100506.85
2022-09-04T04:24:16.373Z,100506.73
2022-09-04T04:25:23.048Z,100511.05
2022-09-04T04:26:41.663Z,100518.84
2022-09-04T04:27:49.916Z,100513.64
2022-09-04T04:29:02.507Z,100519.91
2022-09-04T04:30:08.346Z,100513.81
2022-09-04T04:31:40.444Z,100523.30
2022-09-04T04:33:19.663Z,100514.59
2022-09-04T04:34:28.339Z,100522.34
2022-09-04T04:35:37.562Z,100524.05
2022-09-04T04:36:55.506Z,100528.21
2022-09-04T04:38:09.976Z,100524.66
2022-09-04T04:41:21.616Z,100522.25
2022-09-04T04:42:32.907Z,100521.64
2022-09-04T04:43:41.609Z,100522.39
2022-09-04T04:45:12.337Z,100527.54
2022-09-04T04:46:30.660Z,100528.34
2022-09-04T04:47:54.080Z,100533.64
2022-09-04T04:49:05.892Z,100521.44
2022-09-04T04:50:27.371Z,100523.20
2022-09-04T04:51:42.231Z,100519.88
2022-09-04T04:53:05.863Z,100521.64
2022-09-04T04:54:15.775Z,100521.44
2022-09-04T04:55:36.699Z,100524.85
2022-09-04T04:56:57.020Z,100522.19
2022-09-04T04:58:14.489Z,100516.89
2022-09-04T04:59:20.853Z,100528.95
2022-09-04T05:00:42.114Z,100528.14
2022-09-04T05:01:48.482Z,100532.30
2022-09-04T05:04:39.234Z,100527.14
2022-09-04T05:06:11.159Z,100537.89
2022-09-04T05:07:39.662Z,100535.10
2022-09-04T05:08:58.369Z,100539.32
2022-09-04T05:10:23.060Z,100541.86
2022-09-04T05:11:56.205Z,100542.61
2022-09-04T05:13:01.917Z,100535.70
2022-09-04T05:14:24.294Z,100535.48
2022-09-04T05:15:58.475Z,100538.77
2022-09-04T05:16:55.793Z,100533.45
2022-09-04T05:18:03.507Z,100539.34
2022-09-04T05:19:27.990Z,100541.92
2022-09-04T05:20:43.052Z,100542.66
2022-09-04T05:22:03.904Z,100541.50
2022-09-04T05:23:18.313Z,100547.42
2022-09-04T05:25:58.908Z,100540.73
2022-09-04T05:27:11.300Z,100541.86
2022-09-04T05:28:50.892Z,100544.36
2022-09-04T05:29:59.700Z,100546.06
2022-09-04T05:31:08.458Z,100549.34
2022-09-04T05:32:32.589Z,100544.88
2022-09-04T05:34:13.291Z,100543.80
2022-09-04T05:35:36.553Z,100542.90
2022-09-04T05:38:22.667Z,100536.98
2022-09-04T05:39:37.640Z,100545.07
2022-09-04T05:41:04.653Z,100549.22
2022-09-04T05:42:34.868Z,100545.64
2022-09-04T05:44:02.172Z,100555.03
2022-09-04T05:45:24.691Z,100547.06
2022-09-04T05:46:46.657Z,100558.97
2022-09-04T05:48:03.207Z,100557.82
2022-09-04T05:49:17.391Z,100558.72
2022-09-04T05:50:29.648Z,100559.42
2022-09-04T05:51:50.875Z,100548.01
2022-09-04T05:53:19.508Z,100561.71
2022-09-04T05:54:47.571Z,100561.53
2022-09-04T05:56:16.046Z,100568.14
2022-09-04T05:57:40.208Z,100568.80
2022-09-04T05:59:04.321Z,100567.72
2022-09-04T06:00:19.598Z,100566.73
2022-09-04T06:01:28.024Z,100564.74
2022-09-04T06:02:39.856Z,100568.91
2022-09-04T06:03:48.372Z,100571.41
2022-09-04T06:05:12.073Z,100575.52
2022-09-04T06:06:18.468Z,100575.47
2022-09-04T06:07:33.063Z,100582.33
2022-09-04T06:09:00.725Z,100569.92
2022-09-04T06:10:40.862Z,100575.86
2022-09-04T06:11:52.755Z,100568.56
2022-09-04T06:13:07.647Z,100580.49
2022-09-04T06:14:34.009Z,100577.58
2022-09-04T06:15:39.698Z,100573.00
2022-09-04T06:17:03.765Z,100574.70
2022-09-04T06:18:15.319Z,100577.23
2022-09-04T06:19:36.271Z,100576.25
2022-09-04T06:20:51.656Z,100577.84
2022-09-04T06:22:13.167Z,100582.00
2022-09-04T06:23:27.804Z,100582.64
2022-09-04T06:25:02.175Z,100578.12
2022-09-04T06:26:08.288Z,100582.20
2022-09-04T06:27:34.536Z,100582.09
2022-09-04T06:29:04.818Z,100582.80
2022-09-04T06:30:08.187Z,100583.52
2022-09-04T06:31:20.895Z,100583.31
2022-09-04T06:32:58.886Z,100582.33
2022-09-04T06:34:28.911Z,100592.58
2022-09-04T06:35:38.143Z,100581.89
2022-09-04T06:36:55.031Z,100582.56
2022-09-04T06:38:06.738Z,100588.55
2022-09-04T06:39:44.854Z,100587.55
2022-09-04T06:40:50.869Z,100591.75
2022-09-04T06:41:56.609Z,100589.68
2022-09-04T06:43:23.572Z,100594.78
2022-09-04T06:44:47.896Z,100598.11
2022-09-04T06:46:08.825Z,100593.51
2022-09-04T06:47:29.774Z,100590.77
2022-09-04T06:48:44.632Z,100596.70
2022-09-04T06:50:13.413Z,100594.79
2022-09-04T06:51:32.656Z,100603.27
2022-09-04T06:53:12.516Z,100596.13
2022-09-04T06:54:22.946Z,100596.75
2022-09-04T06:55:45.315Z,100597.61
2022-09-04T06:57:02.907Z,100599.44
2022-09-04T06:58:14.898Z,100600.85
2022-09-04T06:59:29.654Z,100603.30
2022-09-04T07:00:41.487Z,100603.09
2022-09-04T07:02:04.294Z,100602.26
2022-09-04T07:03:25.149Z,100603.88
2022-09-04T07:04:46.345Z,100601.96
2022-09-04T07:05:57.797Z,100606.20
2022-09-04T07:07:07.120Z,100606.73
2022-09-04T07:08:24.999Z,100605.81
2022-09-04T07:09:34.394Z,100601.23
2022-09-04T07:10:52.294Z,100591.59
2022-09-04T07:12:14.382Z,100598.44
2022-09-04T07:13:39.619Z,100589.62
2022-09-04T07:14:50.912Z,100589.26
2022-09-04T07:16:08.914Z,100591.02
2022-09-04T07:17:20.346Z,100588.17
2022-09-04T07:18:46.916Z,100588.73
2022-09-04T07:20:12.378Z,100592.96
2022-09-04T07:21:43.131Z,100585.85
2022-09-04T07:23:05.826Z,100600.34
2022-09-04T07:24:20.659Z,100590.55
2022-09-04T07:25:39.084Z,100597.41
2022-09-04T07:27:17.114Z,100601.67
2022-09-04T07:28:51.873Z,100604.21
2022-09-04T07:30:03.875Z,100599.66
2022-09-04T07:31:15.636Z,100602.20
2022-09-04T07:32:27.374Z,100584.45
2022-09-04T07:33:44.577Z,100591.08
2022-09-04T07:35:08.473Z,100589.05
2022-09-04T07:36:31.646Z,100598.48
2022-09-04T07:37:39.744Z,100594.70
2022-09-04T07:39:14.634Z,100588.45
2022-09-04T07:40:21.416Z,100591.81
2022-09-04T07:41:27.071Z,100596.91
2022-09-04T07:42:50.991Z,100592.44
2022-09-04T07:44:19.973Z,100588.72
2022-09-04T07:45:31.656Z,100588.63
2022-09-04T07:46:56.127Z,100583.33
2022-09-04T07:48:14.107Z,100583.23
2022-09-04T07:49:28.566Z,100589.08
2022-09-04T07:50:36.101Z,100582.72
2022-09-04T07:51:57.370Z,100582.42
2022-09-04T07:54:41.938Z,100581.45
2022-09-04T07:55:50.281Z,100578.69
2022-09-04T07:57:14.929Z,100583.64
2022-09-04T07:58:29.967Z,100584.32
2022-09-04T08:00:00.460Z,100584.91
2022-09-04T08:01:10.427Z,100582.80
2022-09-04T08:02:20.339Z,100585.87
2022-09-04T08:03:53.783Z,100572.91
2022-09-04T08:05:16.729Z,100573.34
2022-09-04T08:06:45.302Z,100579.75
2022-09-04T08:08:27.121Z,100582.91
2022-09-04T08:09:32.743Z,100581.56
2022-09-04T08:10:55.494Z,100572.31
2022-09-04T08:12:22.710Z,100585.84
2022-09-04T08:13:44.765Z,100581.11
2022-09-04T08:14:53.705Z,100578.58
2022-09-04T08:16:07.854Z,100576.97
2022-09-04T08:17:31.936Z,100579.75
2022-09-04T08:19:01.087Z,100581.36
2022-09-04T08:20:09.940Z,100585.00
2022-09-04T08:21:31.100Z,100579.50
2022-09-04T08:22:45.750Z,100588.40
2022-09-04T08:24:03.472Z,100588.23
2022-09-04T08:25:42.994Z,100592.95
2022-09-04T08:27:10.769Z,100589.97
2022-09-04T08:29:30.601Z,100577.93
2022-09-04T08:30:36.725Z,100589.23
2022-09-04T08:33:20.227Z,100583.23
2022-09-04T08:34:41.194Z,100593.11
2022-09-04T08:35:54.134Z,100591.77
2022-09-04T08:37:04.075Z,100593.81
2022-09-04T08:38:47.600Z,100591.77
2022-09-04T08:39:59.471Z,100595.83
2022-09-04T08:41:11.139Z,100596.51
2022-09-04T08:42:39.748Z,100599.87
2022-09-04T08:44:14.858Z,100594.10
2022-09-04T08:45:23.993Z,100598.64
2022-09-04T08:47:02.275Z,100594.23
2022-09-04T08:48:32.615Z,100594.53
2022-09-04T08:49:50.655Z,100593.30
2022-09-04T08:51:05.464Z,100587.34
2022-09-04T08:52:36.088Z,100591.86
2022-09-04T08:53:55.017Z,100594.50
2022-09-04T08:55:04.586Z,100589.52
2022-09-04T08:56:23.557Z,100588.09
2022-09-04T08:57:53.560Z,100586.59
2022-09-04T08:59:34.479Z,100580.67
2022-09-04T09:01:04.787Z,100580.03
2022-09-04T09:02:46.004Z,100574.29
2022-09-04T09:03:57.767Z,100579.92
2022-09-04T09:05:38.869Z,100584.26
2022-09-04T09:06:50.086Z,100577.75
2022-09-04T09:08:31.816Z,100582.66
2022-09-04T09:10:09.694Z,100580.48
2022-09-04T09:11:21.117Z,100578.11
2022-09-04T09:12:46.974Z,100581.69
2022-09-04T09:15:45.258Z,100577.26
2022-09-04T09:17:13.608Z,100582.45
2022-09-04T09:18:35.964Z,100577.19
2022-09-04T09:20:01.708Z,100587.98
2022-09-04T09:21:10.318Z,100579.92
2022-09-04T09:22:19.100Z,100582.56
2022-09-04T09:23:46.878Z,100577.47
2022-09-04T09:25:02.259Z,100580.59
2022-09-04T09:26:26.681Z,100583.59
2022-09-04T09:27:54.296Z,100580.59
2022-09-04T09:29:16.617Z,100574.94
2022-09-04T09:30:23.426Z,100575.70
2022-09-04T09:31:56.922Z,100571.75
2022-09-04T09:33:33.228Z,100577.00
2022-09-04T09:35:02.942Z,100575.75
2022-09-04T09:37:33.585Z,100578.59
2022-09-04T09:39:12.706Z,100578.89
2022-09-04T09:40:36.101Z,100572.33
2022-09-04T09:42:01.047Z,100584.84
2022-09-04T09:43:18.980Z,100578.38
2022-09-04T09:44:56.612Z,100583.94
2022-09-04T09:46:27.869Z,100578.23
2022-09-04T09:47:39.953Z,100574.36
2022-09-04T09:49:03.090Z,100574.72
2022-09-04T09:50:24.602Z,100574.27
2022-09-04T09:52:05.002Z,100570.59
2022-09-04T09:53:26.386Z,100577.70
2022-09-04T09:54:53.425Z,100572.49
2022-09-04T09:56:22.095Z,100563.78
2022-09-04T09:57:37.037Z,100568.30
2022-09-04T09:58:52.738Z,100566.43
2022-09-04T10:00:10.070Z,100558.45
2022-09-04T10:01:38.799Z,100571.78
2022-09-04T10:02:50.668Z,100556.80
2022-09-04T10:04:22.461Z,100554.05
2022-09-04T10:05:46.152Z,100555.16
2022-09-04T10:07:13.158Z,100553.91
2022-09-04T10:08:54.115Z,100553.56
2022-09-04T10:10:26.424Z,100564.88
2022-09-04T10:11:50.669Z,100558.63
2022-09-04T10:13:05.433Z,100549.45
2022-09-04T10:14:24.930Z,100554.31
2022-09-04T10:16:01.126Z,100558.97
2022-09-04T10:17:22.107Z,100561.61
2022-09-04T10:18:49.085Z,100571.22
2022-09-04T10:20:21.723Z,100568.34
2022-09-04T10:21:30.376Z,100566.14
2022-09-04T10:22:40.215Z,100566.23
2022-09-04T10:23:58.212Z,100557.92
2022-09-04T10:25:06.862Z,100558.52
2022-09-04T10:26:36.928Z,100552.67
2022-09-04T10:28:04.269Z,100546.09
2022-09-04T10:29:18.781Z,100551.97
2022-09-04T10:30:23.425Z,100551.48
2022-09-04T10:31:29.304Z,100554.66
2022-09-04T10:32:51.452Z,100554.31
2022-09-04T10:34:17.565Z,100559.69
2022-09-04T10:35:32.230Z,100557.59
2022-09-04T10:36:50.161Z,100564.28
2022-09-04T10:38:18.200Z,100555.75
2022-09-04T10:39:23.901Z,100559.14
2022-09-04T10:40:51.285Z,100564.02
2022-09-04T10:42:00.827Z,100571.40
2022-09-04T10:43:29.971Z,100575.55
2022-09-04T10:44:50.442Z,100574.48
2022-09-04T10:45:56.121Z,100576.03
2022-09-04T10:47:01.890Z,100573.40
2022-09-04T10:48:28.622Z,100572.50
2022-09-04T10:49:45.683Z,100570.34
2022-09-04T10:51:07.128Z,100569.73
2022-09-04T10:52:46.830Z,100564.12
2022-09-04T10:54:07.453Z,100561.50
2022-09-04T10:55:40.868Z,100561.98
2022-09-04T10:56:50.680Z,100561.44
2022-09-04T10:58:29.713Z,100566.63
2022-09-04T10:59:41.634Z,100566.75
2022-09-04T11:00:47.861Z,100561.78
2022-09-04T11:02:02.664Z,100556.43
2022-09-04T11:03:43.573Z,100560.69
2022-09-04T11:05:18.477Z,100558.67
2022-09-04T11:06:27.200Z,100563.11
2022-09-04T11:07:41.464Z,100567.81
2022-09-04T11:09:04.273Z,100572.25
2022-09-04T11:10:19.641Z,100568.02
2022-09-04T11:11:57.558Z,100571.20
2022-09-04T11:13:25.062Z,100564.88
2022-09-04T11:14:37.059Z,100558.97
2022-09-04T11:15:49.175Z,100559.39
2022-09-04T11:17:07.283Z,100551.15
2022-09-04T11:18:30.220Z,100554.61
2022-09-04T11:19:39.143Z,100548.26
2022-09-04T11:21:02.722Z,100551.34
2022-09-04T11:22:29.658Z,100546.81
2022-09-04T11:23:41.508Z,100551.83
2022-09-04T11:25:05.584Z,100552.77
2022-09-04T11:26:17.953Z,100544.63
2022-09-04T11:27:49.702Z,100530.93
2022-09-04T11:29:07.697Z,100531.80
2022-09-04T11:30:19.557Z,100529.53
2022-09-04T11:31:52.202Z,100527.20
2022-09-04T11:33:07.120Z,100538.67
2022-09-04T11:34:30.835Z,100544.48
2022-09-04T11:35:54.222Z,100538.64
2022-09-04T11:37:27.409Z,100537.86
2022-09-04T11:38:49.573Z,100537.48
2022-09-04T11:40:23.642Z,100542.23
2022-09-04T11:41:55.763Z,100546.19
2022-09-04T11:43:18.020Z,100541.80
2022-09-04T11:44:29.884Z,100548.08
2022-09-04T11:45:38.156Z,100537.08
2022-09-04T11:47:04.434Z,100538.31
2022-09-04T11:48:19.241Z,100532.82
2022-09-04T11:49:59.111Z,100529.70
2022-09-04T11:51:13.877Z,100531.05
2022-09-04T11:52:37.025Z,100526.38
2022-09-04T11:53:58.095Z,100531.31
2022-09-04T11:55:13.029Z,100529.50
2022-09-04T11:56:43.385Z,100528.89
2022-09-04T11:58:19.707Z,100538.38
2022-09-04T11:59:34.637Z,100528.63
2022-09-04T12:02:21.486Z,100535.09
2022-09-04T12:04:02.843Z,100535.83
2022-09-04T12:05:23.606Z,100533.62
2022-09-04T12:08:30.045Z,100536.97
2022-09-04T12:09:52.318Z,100538.47
2022-09-04T12:11:31.749Z,100539.71
2022-09-04T12:12:55.401Z,100540.00
2022-09-04T12:14:22.199Z,100528.37
2022-09-04T12:15:50.006Z,100532.36
2022-09-04T12:16:59.404Z,100531.44
2022-09-04T12:18:21.976Z,100536.75
2022-09-04T12:19:56.688Z,100529.22
2022-09-04T12:21:15.731Z,100529.34
2022-09-04T12:22:49.228Z,100518.16
2022-09-04T12:24:21.869Z,100524.55
2022-09-04T12:25:51.597Z,100510.23
2022-09-04T12:27:06.284Z,100507.95
2022-09-04T12:28:17.914Z,100512.63
2022-09-04T12:29:41.083Z,100512.30
2022-09-04T12:31:02.041Z,100514.98
2022-09-04T12:32:31.672Z,100521.23
2022-09-04T12:33:57.312Z,100516.84
2022-09-04T12:35:31.603Z,100501.45
2022-09-04T12:36:51.770Z,100509.75
2022-09-04T12:38:19.527Z,100516.84
2022-09-04T12:39:50.736Z,100509.17
2022-09-04T12:41:13.099Z,100506.83
2022-09-04T12:42:37.723Z,100512.18
2022-09-04T12:44:03.111Z,100514.06
2022-09-04T12:45:28.359Z,100510.23
2022-09-04T12:46:52.545Z,100503.52
2022-09-04T12:47:58.180Z,100507.88
2022-09-04T12:49:21.214Z,100515.80
2022-09-04T12:50:43.869Z,100506.53
2022-09-04T12:52:02.317Z,100516.16
2022-09-04T12:53:28.024Z,100508.81
2022-09-04T12:54:33.794Z,100508.31
2022-09-04T12:56:02.152Z,100512.01
2022-09-04T12:58:46.864Z,100509.27
2022-09-04T13:00:07.306Z,100511.85
2022-09-04T13:01:22.469Z,100501.55
2022-09-04T13:02:31.268Z,100503.42
2022-09-04T13:03:52.845Z,100499.66
2022-09-04T13:05:04.466Z,100492.47
2022-09-04T13:06:27.993Z,100497.05
2022-09-04T13:07:49.098Z,100501.25
2022-09-04T13:09:00.551Z,100503.84
2022-09-04T13:10:28.948Z,100499.84
2022-09-04T13:11:53.850Z,100498.77
2022-09-04T13:13:05.139Z,100513.14
2022-09-04T13:14:27.056Z,100517.17
2022-09-04T13:15:32.704Z,100508.58
2022-09-04T13:16:43.433Z,100512.18
2022-09-04T13:18:23.811Z,100514.73
2022-09-04T13:19:51.141Z,100509.55
2022-09-04T13:21:06.307Z,100512.66
2022-09-04T13:22:29.766Z,100512.88
2022-09-04T13:23:46.550Z,100519.47
2022-09-04T13:25:09.744Z,100512.88
2022-09-04T13:26:46.510Z,100514.87
2022-09-04T13:27:59.490Z,100516.22
2022-09-04T13:29:29.321Z,100521.29
2022-09-04T13:30:35.754Z,100512.41
2022-09-04T13:31:49.939Z,100507.34
2022-09-04T13:33:13.453Z,100514.06
2022-09-04T13:34:26.393Z,100511.96
2022-09-04T13:36:04.358Z,100513.65
2022-09-04T13:37:20.027Z,100516.30
2022-09-04T13:38:31.574Z,100521.67
2022-09-04T13:39:55.736Z,100518.55
2022-09-04T13:41:21.310Z,100521.19
2022-09-04T13:42:49.579Z,100514.45
2022-09-04T13:44:14.755Z,100521.65
2022-09-04T13:45:26.537Z,100521.95
2022-09-04T13:46:32.492Z,100521.84
2022-09-04T13:47:38.492Z,100520.42
2022-09-04T13:48:44.097Z,100516.58
2022-09-04T13:49:56.676Z,100526.94
2022-09-04T13:51:13.550Z,100524.41
2022-09-04T13:52:16.555Z,100521.44
2022-09-04T13:53:34.403Z,100526.32
2022-09-04T13:54:43.037Z,100514.67
2022-09-04T13:55:58.866Z,100519.50
2022-09-04T13:57:12.191Z,100521.06
2022-09-04T13:58:20.262Z,100518.33
2022-09-04T13:59:23.797Z,100518.55
2022-09-04T14:00:29.382Z,100514.19
2022-09-04T14:01:33.019Z,100515.31
2022-09-04T14:02:37.913Z,100514.13
2022-09-04T14:03:43.606Z,100514.56
2022-09-04T14:04:55.622Z,100514.08
2022-09-04T14:05:59.289Z,100512.98
2022-09-04T14:07:05.068Z,100502.69
2022-09-04T14:08:11.484Z,100512.75
2022-09-04T14:09:15.993Z,100511.86
2022-09-04T14:10:43.073Z,100517.59
2022-09-04T14:12:10.719Z,100514.40
2022-09-04T14:13:28.293Z,100507.31
2022-09-04T14:14:56.642Z,100512.80
2022-09-04T14:16:07.315Z,100511.86
2022-09-04T14:17:10.949Z,100527.42
2022-09-04T14:18:28.627Z,100521.62
2022-09-04T14:19:57.739Z,100518.14
2022-09-04T14:21:22.243Z,100520.94
2022-09-04T14:22:33.949Z,100523.13
2022-09-04T14:23:45.464Z,100518.71
2022-09-04T14:25:00.285Z,100520.03
2022-09-04T14:26:17.718Z,100519.73
2022-09-04T14:27:41.795Z,100514.94
2022-09-04T14:28:48.041Z,100517.47
2022-09-04T14:30:12.132Z,100514.47
2022-09-04T14:31:46.441Z,100515.66
2022-09-04T14:32:58.417Z,100516.31
2022-09-04T14:34:05.303Z,100519.45
2022-09-04T14:35:19.624Z,100510.67
2022-09-04T14:36:33.986Z,100513.39
2022-09-04T14:37:42.130Z,100518.31
2022-09-04T14:38:54.009Z,100519.23
2022-09-04T14:39:59.692Z,100515.91
2022-09-04T14:41:21.210Z,100517.59
2022-09-04T14:42:39.601Z,100514.94
2022-09-04T14:43:51.692Z,100509.23
2022-09-04T14:45:34.183Z,100515.91
2022-09-04T14:46:57.423Z,100518.25
2022-09-04T14:48:03.230Z,100510.33
2022-09-04T14:49:08.994Z,100526.45
2022-09-04T14:50:15.621Z,100514.39
2022-09-04T14:51:27.163Z,100516.06
2022-09-04T14:52:35.493Z,100513.19
2022-09-04T14:53:41.648Z,100504.34
2022-09-04T14:54:44.773Z,100517.00
2022-09-04T14:56:09.424Z,100515.20
2022-09-04T14:57:27.089Z,100518.79
2022-09-04T14:58:32.943Z,100518.44
2022-09-04T14:59:39.545Z,100515.74
2022-09-04T15:01:02.205Z,100519.80
2022-09-04T15:02:13.844Z,100515.92
2022-09-04T15:03:19.830Z,100519.89
2022-09-04T15:04:31.435Z,100523.74
2022-09-04T15:05:44.705Z,100524.02
2022-09-04T15:07:10.398Z,100523.58
2022-09-04T15:08:07.292Z,100524.63
2022-09-04T15:09:24.734Z,100531.53
2022-09-04T15:10:35.371Z,100525.13
2022-09-04T15:11:37.544Z,100519.61
2022-09-04T15:12:51.883Z,100527.40
2022-09-04T15:13:58.511Z,100528.30
2022-09-04T15:15:07.327Z,100528.12
2022-09-04T15:16:17.024Z,100528.14
2022-09-04T15:17:28.608Z,100520.71
2022-09-04T15:18:37.173Z,100526.69
2022-09-04T15:19:42.839Z,100522.38
2022-09-04T15:20:54.737Z,100519.77
2022-09-04T15:22:00.460Z,100521.02
2022-09-04T15:23:09.352Z,100515.86